Terminal Aerodrome Forecast
Issued by NWS

Home | Current Version | Previous Version | Text Only | Print | Product List | Glossary On
Versions: 1 2 3 4 5 6 7 8 9 10 11 12 13 14 15 16 17 18 19 20 21
000
FTUS43 KIND 031722
TAFBMG
TAF
KBMG 031722Z 0318/0418 34007KT P6SM BKN020 OVC035
     FM031900 31008KT P6SM BKN035 BKN060
     FM040000 24005KT P6SM SCT035 BKN100
     FM041200 24012KT 5SM -SHRA OVC012=

USA.gov is the U.S. government's official web portal to all federal, state and local government web resources and services.